Time;durP1;ratioP1;P1;durP2;ratioP2;P2;SDS_P1;SDS_P2;PMS_P1;PMS_P2;Temp;Humidity;BMP_temperature;BMP_pressure;BME280_temperature;BME280_humidity;BME280_pressure;Samples;Min_cycle;Max_cycle;Signal;HPM_P1;HPM_P2
2022/11/09 00:02:25;;;;;;;;;;;20.10;46.60;;;;;;4975857;28;19973;-63
2022/11/09 00:04:52;;;;;;;;;;;20.10;46.60;;;;;;4982549;28;20024;-63
2022/11/09 00:07:19;;;;;;;;;;;20.10;46.60;;;;;;4970859;28;19994;-62
2022/11/09 00:09:45;;;;;;;;;;;20.10;46.60;;;;;;4980163;28;19929;-62
2022/11/09 00:12:12;;;;;;;;;;;20.10;46.60;;;;;;4990856;28;20012;-63
2022/11/09 00:14:40;;;;;;;;;;;20.10;46.60;;;;;;4994414;28;19925;-63
2022/11/09 00:17:07;;;;;;;;;;;20.00;46.50;;;;;;4972021;28;19930;-62
2022/11/09 00:19:33;;;;;;;;;;;20.10;46.60;;;;;;4996702;28;20024;-62
2022/11/09 00:22:00;;;;;;;;;;;20.00;46.50;;;;;;4978496;28;19996;-63
2022/11/09 00:24:26;;;;;;;;;;;20.10;46.60;;;;;;4978180;28;20019;-63
2022/11/09 00:26:53;;;;;;;;;;;20.10;46.60;;;;;;4994611;28;20435;-63
2022/11/09 00:29:20;;;;;;;;;;;20.10;46.60;;;;;;4995042;28;19980;-63
2022/11/09 00:31:49;;;;;;;;;;;20.10;46.60;;;;;;5014268;28;19929;-63
2022/11/09 00:34:16;;;;;;;;;;;20.10;46.60;;;;;;4978166;28;19980;-64
2022/11/09 00:36:42;;;;;;;;;;;20.00;46.40;;;;;;4987201;28;20380;-64
2022/11/09 00:39:09;;;;;;;;;;;20.10;46.50;;;;;;4995629;28;19992;-63
2022/11/09 00:41:36;;;;;;;;;;;20.10;46.50;;;;;;4978489;28;19973;-64
2022/11/09 00:44:02;;;;;;;;;;;20.10;46.50;;;;;;4977695;28;20008;-63
2022/11/09 00:46:29;;;;;;;;;;;20.00;46.40;;;;;;4948504;28;20679;-63
2022/11/09 00:48:57;;;;;;;;;;;20.00;46.40;;;;;;4958879;28;19933;-63
2022/11/09 00:51:24;;;;;;;;;;;20.00;46.50;;;;;;4971564;28;20391;-64
2022/11/09 00:53:53;;;;;;;;;;;20.00;46.40;;;;;;4977418;28;19933;-63
2022/11/09 00:56:20;;;;;;;;;;;20.00;46.40;;;;;;4994724;28;19932;-63
2022/11/09 00:58:46;;;;;;;;;;;20.00;46.40;;;;;;4994251;28;20065;-63
2022/11/09 01:01:14;;;;;;;;;;;20.00;46.40;;;;;;4995282;28;19926;-63
2022/11/09 01:03:41;;;;;;;;;;;20.00;46.40;;;;;;4979869;28;19934;-63
2022/11/09 01:06:09;;;;;;;;;;;20.00;46.40;;;;;;4977351;28;19961;-63
2022/11/09 01:08:36;;;;;;;;;;;20.00;46.40;;;;;;4993101;28;20015;-62
2022/11/09 01:11:04;;;;;;;;;;;20.00;46.40;;;;;;4977799;28;20344;-63
2022/11/09 01:13:30;;;;;;;;;;;20.00;46.40;;;;;;4977434;28;19926;-62
2022/11/09 01:15:57;;;;;;;;;;;20.00;46.40;;;;;;4994307;28;19926;-63
2022/11/09 01:18:24;;;;;;;;;;;20.00;46.40;;;;;;4981832;28;19926;-63
2022/11/09 01:20:51;;;;;;;;;;;20.00;46.40;;;;;;4991074;28;19964;-63
2022/11/09 01:23:20;;;;;;;;;;;20.00;46.40;;;;;;4999896;28;19965;-63
2022/11/09 01:25:46;;;;;;;;;;;20.00;46.40;;;;;;4967564;28;19962;-63
2022/11/09 01:28:13;;;;;;;;;;;20.00;46.40;;;;;;4994836;28;19980;-63
2022/11/09 01:30:40;;;;;;;;;;;20.00;46.40;;;;;;4977437;28;19930;-62
2022/11/09 01:33:07;;;;;;;;;;;20.00;46.40;;;;;;4958234;28;20025;-63
2022/11/09 01:35:34;;;;;;;;;;;20.00;46.40;;;;;;4974689;28;19948;-63
2022/11/09 01:38:01;;;;;;;;;;;20.00;46.40;;;;;;4996724;28;19926;-62
2022/11/09 01:40:29;;;;;;;;;;;20.00;46.40;;;;;;5014327;28;20020;-62
2022/11/09 01:42:56;;;;;;;;;;;20.00;46.40;;;;;;4983386;28;20344;-63
2022/11/09 01:45:24;;;;;;;;;;;20.00;46.40;;;;;;4982930;28;19973;-62
2022/11/09 01:47:52;;;;;;;;;;;20.00;46.40;;;;;;4995892;28;19926;-63
2022/11/09 01:50:27;;;;;;;;;;;20.00;46.40;;;;;;4994544;28;19959;-63
2022/11/09 01:52:54;;;;;;;;;;;20.00;46.40;;;;;;4992120;28;19932;-64
2022/11/09 01:55:21;;;;;;;;;;;20.00;46.40;;;;;;4987766;28;19988;-62
2022/11/09 01:57:53;;;;;;;;;;;20.00;46.40;;;;;;4983148;28;19929;-63
2022/11/09 02:00:20;;;;;;;;;;;20.00;46.40;;;;;;4996280;28;20013;-63
2022/11/09 02:02:48;;;;;;;;;;;20.00;46.40;;;;;;4995990;28;20276;-62
2022/11/09 02:05:15;;;;;;;;;;;20.00;46.40;;;;;;5007167;28;20093;-63
2022/11/09 02:07:42;;;;;;;;;;;20.00;46.40;;;;;;4981042;28;19964;-62
2022/11/09 02:10:10;;;;;;;;;;;20.00;46.40;;;;;;4995553;28;19932;-63
2022/11/09 02:12:36;;;;;;;;;;;20.00;46.40;;;;;;4992963;28;19930;-62
2022/11/09 02:15:07;;;;;;;;;;;20.00;46.40;;;;;;4972956;28;19930;-63
2022/11/09 02:17:33;;;;;;;;;;;20.00;46.40;;;;;;4957907;28;19958;-63
2022/11/09 02:20:02;;;;;;;;;;;20.00;46.40;;;;;;4969170;28;19993;-63
2022/11/09 02:22:30;;;;;;;;;;;20.00;46.40;;;;;;5003333;28;20319;-62
2022/11/09 02:24:57;;;;;;;;;;;20.00;46.40;;;;;;4959845;28;20336;-63
2022/11/09 02:27:24;;;;;;;;;;;20.00;46.40;;;;;;4980668;28;19989;-63
2022/11/09 02:29:50;;;;;;;;;;;20.00;46.40;;;;;;4956925;28;19973;-63
2022/11/09 02:32:19;;;;;;;;;;;20.00;46.40;;;;;;4973622;28;20016;-63
2022/11/09 02:34:45;;;;;;;;;;;20.00;46.40;;;;;;4990530;28;19933;-63
2022/11/09 02:37:12;;;;;;;;;;;20.00;46.40;;;;;;4988802;28;19925;-62
2022/11/09 02:39:40;;;;;;;;;;;20.00;46.40;;;;;;4979276;28;20037;-63
2022/11/09 02:42:08;;;;;;;;;;;20.00;46.40;;;;;;4974622;28;19926;-63
2022/11/09 02:44:36;;;;;;;;;;;20.00;46.40;;;;;;4991028;28;20009;-64
2022/11/09 02:47:03;;;;;;;;;;;20.00;46.40;;;;;;4985708;28;19949;-63
2022/11/09 02:49:29;;;;;;;;;;;20.00;46.40;;;;;;4991395;28;20025;-63
2022/11/09 02:51:56;;;;;;;;;;;20.00;46.40;;;;;;4991793;28;20410;-63
2022/11/09 02:54:23;;;;;;;;;;;20.00;46.40;;;;;;4975754;28;19961;-62
2022/11/09 02:56:51;;;;;;;;;;;20.00;46.40;;;;;;4987405;28;19936;-63
2022/11/09 02:59:18;;;;;;;;;;;20.00;46.40;;;;;;4972143;28;20025;-63
2022/11/09 03:01:44;;;;;;;;;;;20.00;46.40;;;;;;5004569;28;20024;-62
2022/11/09 03:04:11;;;;;;;;;;;20.00;46.40;;;;;;4998386;28;19929;-63
2022/11/09 03:06:40;;;;;;;;;;;20.00;46.40;;;;;;5000903;28;20020;-62
2022/11/09 03:09:08;;;;;;;;;;;20.00;46.40;;;;;;4988596;28;19936;-63
2022/11/09 03:11:37;;;;;;;;;;;20.00;46.40;;;;;;4968576;28;22009;-63
2022/11/09 03:14:05;;;;;;;;;;;20.00;46.40;;;;;;5000749;28;20131;-63
2022/11/09 03:16:32;;;;;;;;;;;20.00;46.40;;;;;;4992591;28;19926;-63
2022/11/09 03:18:58;;;;;;;;;;;20.00;46.40;;;;;;4975242;28;19926;-63
2022/11/09 03:21:25;;;;;;;;;;;20.00;46.40;;;;;;4993754;28;19984;-63
2022/11/09 03:23:52;;;;;;;;;;;20.00;46.40;;;;;;4973302;28;19925;-63
2022/11/09 03:26:19;;;;;;;;;;;20.00;46.40;;;;;;4981508;28;19969;-63
2022/11/09 03:28:46;;;;;;;;;;;20.00;46.40;;;;;;4992568;28;19941;-63
2022/11/09 03:31:14;;;;;;;;;;;20.00;46.40;;;;;;4975667;28;19926;-63
2022/11/09 03:33:41;;;;;;;;;;;20.00;46.40;;;;;;4993180;28;19926;-63
2022/11/09 03:36:08;;;;;;;;;;;20.00;46.40;;;;;;4997023;28;20020;-63
2022/11/09 03:38:34;;;;;;;;;;;20.00;46.40;;;;;;5012554;28;19975;-63
2022/11/09 03:41:01;;;;;;;;;;;20.00;46.40;;;;;;4984370;28;19996;-64
2022/11/09 03:43:28;;;;;;;;;;;20.00;46.40;;;;;;4993062;28;19969;-62
2022/11/09 03:45:54;;;;;;;;;;;20.00;46.40;;;;;;4996055;28;19930;-63
2022/11/09 03:48:22;;;;;;;;;;;20.00;46.40;;;;;;4980626;28;19972;-63
2022/11/09 03:50:49;;;;;;;;;;;20.00;46.40;;;;;;4996331;28;19926;-63
2022/11/09 03:53:16;;;;;;;;;;;20.00;46.40;;;;;;5014677;28;19926;-64
2022/11/09 03:55:42;;;;;;;;;;;20.00;46.40;;;;;;4984579;28;19972;-63
2022/11/09 03:58:09;;;;;;;;;;;20.00;46.40;;;;;;4994914;28;19930;-63
2022/11/09 04:00:36;;;;;;;;;;;20.00;46.40;;;;;;4979192;28;19932;-64
2022/11/09 04:03:03;;;;;;;;;;;20.00;47.00;;;;;;5015130;28;19964;-63
2022/11/09 04:05:31;;;;;;;;;;;20.00;46.40;;;;;;4985344;28;20388;-64
2022/11/09 04:07:58;;;;;;;;;;;20.00;46.40;;;;;;5011416;28;19926;-64
2022/11/09 04:10:25;;;;;;;;;;;20.00;46.40;;;;;;4968527;28;19961;-65
2022/11/09 04:12:52;;;;;;;;;;;20.00;46.40;;;;;;4994091;28;19965;-63
2022/11/09 04:15:18;;;;;;;;;;;20.00;46.40;;;;;;4992735;28;19926;-63
2022/11/09 04:17:45;;;;;;;;;;;20.00;46.40;;;;;;4975918;28;19926;-64
2022/11/09 04:20:12;;;;;;;;;;;20.00;46.40;;;;;;4958695;28;19989;-66
2022/11/09 04:22:40;;;;;;;;;;;20.00;46.40;;;;;;4972928;28;19930;-63
2022/11/09 04:25:07;;;;;;;;;;;20.00;46.40;;;;;;4978282;28;19941;-63
2022/11/09 04:27:34;;;;;;;;;;;20.00;46.40;;;;;;4993651;28;20020;-63
2022/11/09 04:30:01;;;;;;;;;;;20.00;46.40;;;;;;4994402;28;20061;-63
2022/11/09 04:32:27;;;;;;;;;;;20.00;46.40;;;;;;4985022;28;20017;-63
2022/11/09 04:34:54;;;;;;;;;;;20.00;46.40;;;;;;4959159;28;19936;-63
2022/11/09 04:37:21;;;;;;;;;;;20.00;46.40;;;;;;5005673;28;20256;-63
2022/11/09 04:39:49;;;;;;;;;;;20.00;46.40;;;;;;4997923;28;19980;-63
2022/11/09 04:42:16;;;;;;;;;;;20.00;46.40;;;;;;5008416;28;19926;-63
2022/11/09 04:44:42;;;;;;;;;;;20.00;46.40;;;;;;4998077;28;19983;-62
2022/11/09 04:47:09;;;;;;;;;;;20.00;46.50;;;;;;4988167;28;19929;-64
2022/11/09 04:49:36;;;;;;;;;;;20.00;46.50;;;;;;5014680;28;19936;-64
2022/11/09 04:52:02;;;;;;;;;;;20.00;46.50;;;;;;5006756;28;19976;-63
2022/11/09 04:54:29;;;;;;;;;;;20.00;46.40;;;;;;5004847;28;19980;-63
2022/11/09 04:56:57;;;;;;;;;;;20.00;46.50;;;;;;4974380;28;19977;-64
2022/11/09 04:59:24;;;;;;;;;;;20.00;46.50;;;;;;4975799;28;19930;-64
2022/11/09 05:01:50;;;;;;;;;;;20.00;46.50;;;;;;4970335;28;19930;-63
2022/11/09 05:04:17;;;;;;;;;;;20.00;46.50;;;;;;4975236;28;20344;-63
2022/11/09 05:06:44;;;;;;;;;;;20.00;46.50;;;;;;4991665;28;19980;-64
2022/11/09 05:09:10;;;;;;;;;;;20.00;46.50;;;;;;4988367;28;19957;-64
2022/11/09 05:11:37;;;;;;;;;;;20.00;46.50;;;;;;4975929;28;20019;-64
2022/11/09 05:14:05;;;;;;;;;;;19.90;46.40;;;;;;4992342;28;20422;-64
2022/11/09 05:16:32;;;;;;;;;;;19.90;46.40;;;;;;4990344;28;19937;-64
2022/11/09 05:18:58;;;;;;;;;;;20.00;46.50;;;;;;4992545;28;19929;-63
2022/11/09 05:21:26;;;;;;;;;;;20.00;46.50;;;;;;4993851;28;19977;-63
2022/11/09 05:23:57;;;;;;;;;;;20.00;46.50;;;;;;4971910;28;19934;-62
2022/11/09 05:26:25;;;;;;;;;;;20.00;46.50;;;;;;4974896;28;19957;-63
2022/11/09 05:28:52;;;;;;;;;;;20.00;46.50;;;;;;4994861;28;20004;-63
2022/11/09 05:31:20;;;;;;;;;;;20.00;46.50;;;;;;4991522;28;19926;-62
2022/11/09 05:33:48;;;;;;;;;;;20.00;46.50;;;;;;4995267;28;19929;-62
2022/11/09 05:36:14;;;;;;;;;;;19.90;46.40;;;;;;4986799;28;19948;-63
2022/11/09 05:38:41;;;;;;;;;;;19.90;46.40;;;;;;4982006;28;19953;-63
2022/11/09 05:41:08;;;;;;;;;;;20.00;46.50;;;;;;4993163;28;19929;-62
2022/11/09 05:43:35;;;;;;;;;;;19.90;46.40;;;;;;4997035;28;20328;-62
2022/11/09 05:46:01;;;;;;;;;;;19.90;46.40;;;;;;4989919;28;19929;-63
2022/11/09 05:48:29;;;;;;;;;;;19.90;46.40;;;;;;5005482;28;19926;-63
2022/11/09 05:50:57;;;;;;;;;;;19.90;46.40;;;;;;4974183;28;19973;-63
2022/11/09 05:53:23;;;;;;;;;;;20.00;46.50;;;;;;4993469;28;19940;-63
2022/11/09 05:55:50;;;;;;;;;;;20.00;46.50;;;;;;4975500;28;19926;-64
2022/11/09 05:58:17;;;;;;;;;;;19.90;46.40;;;;;;4975546;28;19981;-62
2022/11/09 06:00:43;;;;;;;;;;;19.90;46.50;;;;;;4971595;28;19933;-64
2022/11/09 06:03:10;;;;;;;;;;;19.90;46.40;;;;;;4976865;28;19926;-63
2022/11/09 06:05:39;;;;;;;;;;;19.90;46.40;;;;;;4990462;28;19930;-64
2022/11/09 06:08:06;;;;;;;;;;;20.00;46.50;;;;;;4975481;28;19937;-63
2022/11/09 06:10:33;;;;;;;;;;;19.90;46.40;;;;;;4984469;28;19930;-64
2022/11/09 06:13:00;;;;;;;;;;;19.90;46.40;;;;;;4970593;28;19961;-64
2022/11/09 06:15:26;;;;;;;;;;;19.90;46.40;;;;;;4972331;28;20036;-64
2022/11/09 06:17:53;;;;;;;;;;;19.90;46.50;;;;;;4990815;28;19937;-64
2022/11/09 06:20:20;;;;;;;;;;;19.90;46.50;;;;;;4975592;28;19930;-64
2022/11/09 06:22:54;;;;;;;;;;;19.90;46.40;;;;;;4975184;28;19933;-63
2022/11/09 06:25:21;;;;;;;;;;;19.90;46.50;;;;;;4974319;28;20009;-64
2022/11/09 06:27:48;;;;;;;;;;;19.90;46.50;;;;;;4991998;28;20387;-63
2022/11/09 06:30:14;;;;;;;;;;;20.00;46.60;;;;;;4974581;28;19936;-62
2022/11/09 06:32:41;;;;;;;;;;;19.90;46.50;;;;;;4989960;28;19926;-63
2022/11/09 06:35:09;;;;;;;;;;;19.90;46.50;;;;;;4974052;28;19932;-63
2022/11/09 06:37:36;;;;;;;;;;;19.90;46.50;;;;;;4974414;28;19957;-64
2022/11/09 06:40:04;;;;;;;;;;;20.00;46.60;;;;;;4988576;28;19936;-63
2022/11/09 06:42:31;;;;;;;;;;;19.90;46.50;;;;;;4974567;28;20041;-64
2022/11/09 06:44:58;;;;;;;;;;;19.90;46.50;;;;;;4983947;28;19954;-63
2022/11/09 06:47:24;;;;;;;;;;;19.90;46.50;;;;;;4996567;28;19930;-63
2022/11/09 06:49:51;;;;;;;;;;;19.90;46.50;;;;;;4975401;28;20015;-64
2022/11/09 06:52:18;;;;;;;;;;;19.90;46.50;;;;;;4972298;28;19932;-63
2022/11/09 06:54:44;;;;;;;;;;;19.90;46.50;;;;;;4967251;28;19976;-64
2022/11/09 06:57:12;;;;;;;;;;;19.90;46.50;;;;;;4968627;28;19930;-64
2022/11/09 06:59:39;;;;;;;;;;;19.90;46.50;;;;;;4980138;28;20028;-64
2022/11/09 07:02:06;;;;;;;;;;;19.90;46.50;;;;;;4974690;28;19984;-64
2022/11/09 07:04:32;;;;;;;;;;;20.00;46.60;;;;;;4991176;28;20439;-64
2022/11/09 07:06:59;;;;;;;;;;;19.90;46.50;;;;;;4980410;28;20033;-64
2022/11/09 07:09:26;;;;;;;;;;;20.00;46.60;;;;;;4959358;28;19926;-64
2022/11/09 07:11:53;;;;;;;;;;;20.00;46.60;;;;;;4983848;28;19930;-64
2022/11/09 07:14:21;;;;;;;;;;;19.90;46.50;;;;;;4970596;28;19976;-63
2022/11/09 07:16:48;;;;;;;;;;;20.00;46.60;;;;;;4961313;28;19988;-63
2022/11/09 07:19:15;;;;;;;;;;;19.90;46.50;;;;;;4980022;28;19936;-64
2022/11/09 07:21:42;;;;;;;;;;;19.90;46.50;;;;;;4984679;28;19932;-63
2022/11/09 07:24:09;;;;;;;;;;;19.90;46.50;;;;;;4976717;28;19945;-64
2022/11/09 07:26:35;;;;;;;;;;;19.90;46.50;;;;;;4974093;28;19926;-63
2022/11/09 07:29:02;;;;;;;;;;;19.90;46.50;;;;;;4972097;28;19937;-63
2022/11/09 07:31:30;;;;;;;;;;;19.90;46.50;;;;;;4981381;28;19984;-63
2022/11/09 07:34:01;;;;;;;;;;;19.90;46.50;;;;;;4990848;28;19926;-64
2022/11/09 07:36:27;;;;;;;;;;;20.00;46.60;;;;;;4989370;28;19925;-64
2022/11/09 07:38:54;;;;;;;;;;;20.00;46.60;;;;;;5001983;28;19972;-64
2022/11/09 07:41:21;;;;;;;;;;;20.00;46.60;;;;;;4989504;28;19925;-64
2022/11/09 07:43:47;;;;;;;;;;;19.90;46.50;;;;;;4974397;28;19945;-63
2022/11/09 07:46:14;;;;;;;;;;;20.00;47.20;;;;;;4974212;28;20392;-64
2022/11/09 07:48:42;;;;;;;;;;;20.00;46.70;;;;;;4974824;28;19926;-64
2022/11/09 07:51:09;;;;;;;;;;;20.00;46.70;;;;;;4974779;28;19957;-63
2022/11/09 07:53:35;;;;;;;;;;;20.00;46.60;;;;;;4975156;28;20013;-64
2022/11/09 07:56:02;;;;;;;;;;;20.00;46.60;;;;;;4990798;28;19957;-64
2022/11/09 07:58:29;;;;;;;;;;;20.00;46.70;;;;;;4975302;28;20033;-64
2022/11/09 08:00:56;;;;;;;;;;;20.00;46.60;;;;;;4968237;28;19933;-64
2022/11/09 08:03:23;;;;;;;;;;;20.00;46.70;;;;;;4977646;28;19937;-63
2022/11/09 08:05:51;;;;;;;;;;;20.00;46.70;;;;;;4989487;28;19931;-62
2022/11/09 08:08:18;;;;;;;;;;;20.00;46.70;;;;;;4990370;28;19961;-63
2022/11/09 08:10:50;;;;;;;;;;;20.00;46.70;;;;;;4973328;28;19930;-62
2022/11/09 08:13:17;;;;;;;;;;;20.00;46.70;;;;;;4992399;28;19941;-63
2022/11/09 08:15:43;;;;;;;;;;;20.00;46.70;;;;;;4993335;28;19932;-63
2022/11/09 08:18:10;;;;;;;;;;;20.00;46.80;;;;;;4974960;28;19981;-63
2022/11/09 08:20:37;;;;;;;;;;;20.00;46.70;;;;;;4992091;28;19925;-63
2022/11/09 08:23:05;;;;;;;;;;;20.00;46.70;;;;;;4983733;28;19926;-63
2022/11/09 08:25:32;;;;;;;;;;;20.00;46.70;;;;;;4991028;28;20399;-63
2022/11/09 08:27:58;;;;;;;;;;;20.00;46.70;;;;;;4973483;28;19973;-63
2022/11/09 08:30:25;;;;;;;;;;;20.00;46.70;;;;;;4993438;28;20027;-63
2022/11/09 08:32:52;;;;;;;;;;;20.00;46.70;;;;;;4983180;28;19934;-63
2022/11/09 08:35:19;;;;;;;;;;;20.00;46.70;;;;;;4975270;28;19972;-64
2022/11/09 08:37:47;;;;;;;;;;;20.00;46.70;;;;;;4973828;28;19926;-63
2022/11/09 08:40:15;;;;;;;;;;;20.00;46.70;;;;;;4981397;28;19930;-63
2022/11/09 08:42:42;;;;;;;;;;;20.00;46.80;;;;;;4981746;28;19976;-63
2022/11/09 08:45:09;;;;;;;;;;;20.00;46.70;;;;;;4975940;28;19973;-63
2022/11/09 08:47:36;;;;;;;;;;;20.00;46.70;;;;;;4962547;28;20393;-63
2022/11/09 08:50:04;;;;;;;;;;;20.00;46.70;;;;;;4991043;28;20558;-64
2022/11/09 08:52:30;;;;;;;;;;;20.00;46.80;;;;;;4976508;28;20398;-63
2022/11/09 08:54:57;;;;;;;;;;;20.00;46.80;;;;;;4977747;28;20012;-63
2022/11/09 08:57:25;;;;;;;;;;;20.00;46.80;;;;;;4977556;28;20340;-63
2022/11/09 08:59:52;;;;;;;;;;;20.00;46.80;;;;;;5011958;28;19933;-62
2022/11/09 09:02:19;;;;;;;;;;;20.00;46.80;;;;;;4982727;28;19979;-62
2022/11/09 09:04:46;;;;;;;;;;;20.00;46.80;;;;;;4994171;28;19937;-63
2022/11/09 09:07:12;;;;;;;;;;;20.00;46.80;;;;;;4983371;28;19932;-63
2022/11/09 09:09:39;;;;;;;;;;;20.00;46.80;;;;;;4994149;28;20016;-63
2022/11/09 09:12:06;;;;;;;;;;;20.00;46.80;;;;;;4988353;28;19957;-63
2022/11/09 09:14:34;;;;;;;;;;;20.00;46.90;;;;;;4996216;28;19980;-62
2022/11/09 09:17:00;;;;;;;;;;;20.00;46.90;;;;;;4994186;28;19968;-62
2022/11/09 09:19:27;;;;;;;;;;;20.00;46.80;;;;;;4994104;28;19926;-63
2022/11/09 09:21:54;;;;;;;;;;;20.10;46.90;;;;;;4976795;28;19992;-62
2022/11/09 09:24:20;;;;;;;;;;;20.00;46.90;;;;;;4993283;28;19925;-63
2022/11/09 09:26:47;;;;;;;;;;;20.10;46.90;;;;;;4994852;28;19961;-63
2022/11/09 09:29:14;;;;;;;;;;;20.10;46.90;;;;;;4977536;28;19989;-63
2022/11/09 09:31:42;;;;;;;;;;;20.10;46.90;;;;;;4973548;28;19926;-63
2022/11/09 09:34:10;;;;;;;;;;;20.10;46.90;;;;;;4993362;28;19926;-63
2022/11/09 09:36:36;;;;;;;;;;;20.10;47.00;;;;;;4976796;28;19930;-63
2022/11/09 09:39:03;;;;;;;;;;;20.10;46.90;;;;;;4991583;28;19977;-63
2022/11/09 09:41:31;;;;;;;;;;;20.10;47.00;;;;;;5001087;28;19957;-63
2022/11/09 09:43:58;;;;;;;;;;;20.10;47.00;;;;;;4994103;28;20006;-63
2022/11/09 09:46:26;;;;;;;;;;;20.10;47.00;;;;;;4976168;28;19968;-63
2022/11/09 09:48:54;;;;;;;;;;;20.10;47.10;;;;;;4979881;28;19961;-62
2022/11/09 09:51:22;;;;;;;;;;;20.10;47.00;;;;;;4972953;28;19951;-63
2022/11/09 09:53:50;;;;;;;;;;;20.10;47.10;;;;;;4987123;28;19926;-63
2022/11/09 09:56:17;;;;;;;;;;;20.10;47.00;;;;;;4978634;28;19994;-63
2022/11/09 09:58:45;;;;;;;;;;;20.10;47.00;;;;;;4972707;28;19984;-64
2022/11/09 10:01:13;;;;;;;;;;;20.10;47.10;;;;;;4974383;28;20003;-63
2022/11/09 10:03:40;;;;;;;;;;;20.10;47.00;;;;;;4958707;28;20025;-64
2022/11/09 10:06:11;;;;;;;;;;;20.10;47.10;;;;;;4987612;28;19925;-64
2022/11/09 10:08:40;;;;;;;;;;;20.10;47.10;;;;;;4992753;28;19930;-63
2022/11/09 10:11:13;;;;;;;;;;;20.10;47.10;;;;;;4970600;28;20370;-63
2022/11/09 10:13:47;;;;;;;;;;;20.10;47.10;;;;;;4969873;28;20032;-63
2022/11/09 10:16:16;;;;;;;;;;;20.10;47.10;;;;;;4969949;28;19945;-64
2022/11/09 10:18:46;;;;;;;;;;;20.10;47.10;;;;;;4982464;28;20020;-64
2022/11/09 10:21:18;;;;;;;;;;;20.10;47.10;;;;;;4968537;28;20582;-64
2022/11/09 10:23:48;;;;;;;;;;;20.10;47.10;;;;;;4974743;28;20013;-64
2022/11/09 10:26:17;;;;;;;;;;;20.10;47.20;;;;;;4991597;28;19965;-63
2022/11/09 10:28:45;;;;;;;;;;;20.10;47.10;;;;;;4975281;28;19926;-64
2022/11/09 10:31:13;;;;;;;;;;;20.10;47.10;;;;;;4981564;28;19965;-64
2022/11/09 10:33:40;;;;;;;;;;;20.10;47.20;;;;;;4973484;28;19932;-63
2022/11/09 10:36:09;;;;;;;;;;;20.10;47.20;;;;;;4985154;28;19934;-63
2022/11/09 10:38:38;;;;;;;;;;;20.10;47.20;;;;;;4991658;28;19926;-63
2022/11/09 10:41:06;;;;;;;;;;;20.20;47.20;;;;;;4968819;28;20017;-64
2022/11/09 10:43:33;;;;;;;;;;;20.10;47.20;;;;;;4991598;28;20028;-64
2022/11/09 10:46:03;;;;;;;;;;;20.10;47.20;;;;;;4977706;28;20024;-64
2022/11/09 10:48:31;;;;;;;;;;;20.20;47.30;;;;;;4965030;28;19984;-63
2022/11/09 10:50:58;;;;;;;;;;;20.10;47.20;;;;;;4984631;28;19925;-62
2022/11/09 10:53:25;;;;;;;;;;;20.20;47.30;;;;;;4992077;28;20032;-62
2022/11/09 10:55:54;;;;;;;;;;;20.20;47.30;;;;;;4973721;28;20069;-62
2022/11/09 10:58:24;;;;;;;;;;;20.10;47.20;;;;;;4979607;28;19945;-62
2022/11/09 11:00:58;;;;;;;;;;;20.20;47.30;;;;;;4974740;28;19976;-63
2022/11/09 11:03:25;;;;;;;;;;;20.20;47.30;;;;;;4992219;28;19985;-63
2022/11/09 11:05:57;;;;;;;;;;;20.20;47.30;;;;;;4975243;28;19932;-64
2022/11/09 11:08:25;;;;;;;;;;;20.20;47.40;;;;;;4962179;28;19925;-64
2022/11/09 11:10:53;;;;;;;;;;;20.20;47.30;;;;;;4972503;28;20307;-63
2022/11/09 11:13:23;;;;;;;;;;;20.20;47.30;;;;;;4990878;28;19934;-63
2022/11/09 11:15:50;;;;;;;;;;;20.20;47.30;;;;;;4992857;28;20384;-63
2022/11/09 11:18:18;;;;;;;;;;;20.20;47.30;;;;;;4976426;28;20162;-63
2022/11/09 11:20:45;;;;;;;;;;;20.20;47.40;;;;;;4970703;28;20222;-64
2022/11/09 11:23:12;;;;;;;;;;;20.20;47.40;;;;;;4989289;28;19926;-63
2022/11/09 11:25:40;;;;;;;;;;;20.20;47.40;;;;;;4990715;28;19949;-64
2022/11/09 11:28:15;;;;;;;;;;;20.20;47.40;;;;;;4980306;28;20008;-64
2022/11/09 11:30:41;;;;;;;;;;;20.20;47.40;;;;;;4985305;28;19922;-64
2022/11/09 11:33:11;;;;;;;;;;;20.20;47.40;;;;;;4973190;28;19926;-63
2022/11/09 11:35:38;;;;;;;;;;;20.20;47.30;;;;;;4966189;28;19990;-63
2022/11/09 11:38:08;;;;;;;;;;;20.20;47.40;;;;;;4989293;28;19997;-64
2022/11/09 11:40:37;;;;;;;;;;;20.20;47.30;;;;;;4962520;28;20009;-64
2022/11/09 11:43:14;;;;;;;;;;;20.20;47.30;;;;;;4974866;28;20028;-65
2022/11/09 11:45:41;;;;;;;;;;;20.20;47.30;;;;;;4974893;28;19948;-63
2022/11/09 11:48:24;;;;;;;;;;;20.20;47.30;;;;;;4975012;28;19930;-63
2022/11/09 11:50:51;;;;;;;;;;;20.20;47.40;;;;;;4973312;28;19926;-63
2022/11/09 11:53:21;;;;;;;;;;;20.20;47.30;;;;;;4974486;28;20388;-64
2022/11/09 11:55:51;;;;;;;;;;;20.20;47.30;;;;;;4970594;28;19977;-63
2022/11/09 11:58:23;;;;;;;;;;;20.20;47.30;;;;;;4970310;28;19961;-64
2022/11/09 12:00:51;;;;;;;;;;;20.20;47.40;;;;;;4974238;28;20526;-63
2022/11/09 12:03:25;;;;;;;;;;;20.20;48.00;;;;;;4965100;28;20033;-63
2022/11/09 12:06:09;;;;;;;;;;;20.20;47.40;;;;;;4992898;28;19930;-63
2022/11/09 12:08:39;;;;;;;;;;;20.20;47.40;;;;;;4983373;28;19956;-63
2022/11/09 12:11:09;;;;;;;;;;;20.20;47.40;;;;;;4996823;28;19980;-63
2022/11/09 12:13:41;;;;;;;;;;;20.20;47.40;;;;;;4978639;28;19926;-64
2022/11/09 12:16:09;;;;;;;;;;;20.20;47.40;;;;;;4991972;28;19930;-63
2022/11/09 12:18:40;;;;;;;;;;;20.30;47.50;;;;;;4982035;28;19981;-63
2022/11/09 12:21:12;;;;;;;;;;;20.30;47.50;;;;;;4965922;28;19933;-63
2022/11/09 12:23:42;;;;;;;;;;;20.20;47.40;;;;;;4959061;28;19930;-64
2022/11/09 12:26:11;;;;;;;;;;;20.20;47.40;;;;;;4944291;28;20324;-64
2022/11/09 12:28:47;;;;;;;;;;;20.30;47.50;;;;;;4960563;28;19930;-64
2022/11/09 12:31:20;;;;;;;;;;;20.30;47.50;;;;;;4996583;28;19933;-63
2022/11/09 12:33:48;;;;;;;;;;;20.20;47.40;;;;;;4979118;28;19952;-63
2022/11/09 12:36:16;;;;;;;;;;;20.20;47.40;;;;;;4995255;28;19926;-63
2022/11/09 12:38:46;;;;;;;;;;;20.30;47.50;;;;;;4996071;28;19934;-63
2022/11/09 12:41:14;;;;;;;;;;;20.30;47.50;;;;;;4994826;28;19926;-64
2022/11/09 12:43:43;;;;;;;;;;;20.20;47.40;;;;;;4991621;28;19926;-63
2022/11/09 12:46:12;;;;;;;;;;;20.30;47.50;;;;;;5002210;28;19926;-63
2022/11/09 12:48:39;;;;;;;;;;;20.30;47.40;;;;;;4959001;28;19930;-63
2022/11/09 12:51:06;;;;;;;;;;;20.20;47.40;;;;;;4968592;28;19948;-63
2022/11/09 12:53:33;;;;;;;;;;;20.30;47.50;;;;;;4978525;28;19972;-64
2022/11/09 12:56:01;;;;;;;;;;;20.30;47.40;;;;;;4991475;28;19988;-63
2022/11/09 12:58:29;;;;;;;;;;;20.30;47.40;;;;;;5007136;28;19933;-64
2022/11/09 13:00:56;;;;;;;;;;;20.30;47.40;;;;;;4995808;28;19926;-63
2022/11/09 13:03:24;;;;;;;;;;;20.30;47.50;;;;;;4994454;28;19930;-64
2022/11/09 13:06:08;;;;;;;;;;;20.20;47.40;;;;;;5007144;28;19972;-63
2022/11/09 13:08:35;;;;;;;;;;;20.20;47.40;;;;;;4959285;28;19937;-63
2022/11/09 13:11:08;;;;;;;;;;;20.30;47.40;;;;;;5001698;28;20360;-63
2022/11/09 13:13:35;;;;;;;;;;;20.30;47.40;;;;;;5015244;28;19968;-63
2022/11/09 13:16:20;;;;;;;;;;;20.20;47.40;;;;;;4990843;28;19932;-63
2022/11/09 13:18:50;;;;;;;;;;;20.30;47.40;;;;;;4968394;28;20277;-63
2022/11/09 13:21:35;;;;;;;;;;;20.30;47.40;;;;;;4992162;28;20032;-64
2022/11/09 13:24:33;;;;;;;;;;;20.30;47.40;;;;;;4995843;28;19929;-63
2022/11/09 13:27:00;;;;;;;;;;;20.30;47.40;;;;;;4974247;28;20025;-63
2022/11/09 13:29:27;;;;;;;;;;;20.30;47.40;;;;;;4975945;28;19929;-64
2022/11/09 13:32:12;;;;;;;;;;;20.30;47.40;;;;;;4984935;28;20450;-63
2022/11/09 13:34:44;;;;;;;;;;;20.30;47.40;;;;;;4977261;28;19996;-63
2022/11/09 13:37:29;;;;;;;;;;;20.30;47.40;;;;;;4975822;28;19933;-63
2022/11/09 13:39:56;;;;;;;;;;;20.30;47.40;;;;;;4968209;28;19933;-63
2022/11/09 13:42:26;;;;;;;;;;;20.30;47.40;;;;;;4993528;28;19925;-63
2022/11/09 13:44:53;;;;;;;;;;;20.30;47.40;;;;;;4977208;28;19976;-63
2022/11/09 13:47:21;;;;;;;;;;;20.30;47.40;;;;;;4993008;28;19926;-63
2022/11/09 13:49:49;;;;;;;;;;;20.30;47.50;;;;;;4994397;28;19953;-63
2022/11/09 13:52:43;;;;;;;;;;;20.30;47.40;;;;;;4976941;28;20025;-63
2022/11/09 13:55:17;;;;;;;;;;;20.30;47.40;;;;;;4964715;28;19926;-63
2022/11/09 13:57:44;;;;;;;;;;;20.30;47.40;;;;;;4972598;28;20013;-63
2022/11/09 14:00:17;;;;;;;;;;;20.30;47.40;;;;;;4981071;28;20294;-63
2022/11/09 14:02:51;;;;;;;;;;;20.30;47.40;;;;;;5012003;28;20455;-63
2022/11/09 14:05:40;;;;;;;;;;;20.30;47.40;;;;;;4976387;28;19941;-63
2022/11/09 14:08:09;;;;;;;;;;;20.30;47.40;;;;;;4992143;28;19926;-63
2022/11/09 14:10:40;;;;;;;;;;;20.30;47.40;;;;;;4993928;28;19929;-63
2022/11/09 14:13:13;;;;;;;;;;;20.30;47.40;;;;;;4970914;28;20427;-63
2022/11/09 14:15:42;;;;;;;;;;;20.30;47.40;;;;;;4969583;28;19926;-63
2022/11/09 14:18:12;;;;;;;;;;;20.30;47.40;;;;;;4995170;28;19934;-63
2022/11/09 14:20:41;;;;;;;;;;;20.30;47.40;;;;;;4989905;28;20299;-62
2022/11/09 14:23:15;;;;;;;;;;;20.30;47.40;;;;;;4991752;28;19941;-63